Details From SBSJ - Sao Jose Dos Campos
To SBSP - Sao Paulo Congonhas
Flight Number -
Tags decoded
Created
Modified
Stats Distance 91 nm / 168 km
Max Altitude 0 ft / 0 m
Waypoints 7
Social Downloads 0
Likes 0
Share VATSIM

Download

Looking for another format? Having issues loading an existing format? Contact us
Advertisement - Login to hide

Notes

Requested: SBSJ NOGUR LOPES TRIGO SULCO NALGA SBSP

Route

SBSJ NOGUR LOPES TRIGO SULCO NALGA SBSP

ID Type Via Altitude Latitude Longitude Leg Dist Tot Dist Heading (true) Name
O SBSJ APT - 0 ft / 0 m -23.22817˚ -45.86274˚ - 0 nm - Sao Jose Dos Campos
NOGUR FIX - 0 ft / 0 m -23.28717˚ -45.98883˚ 7 nm 7 nm 243° / 243° -
LOPES FIX - 0 ft / 0 m -23.46183˚ -45.91433˚ 11 nm 19 nm 159° / 159° -
TRIGO FIX - 0 ft / 0 m -23.74133˚ -45.90067˚ 16 nm 35 nm 177° / 177° -
SULCO FIX - 0 ft / 0 m -23.89967˚ -45.94900˚ 9 nm 45 nm 196° / 196° -
NALGA FIX - 0 ft / 0 m -23.86300˚ -46.41000˚ 25 nm 71 nm 275° / 275° -
O SBSP APT - 0 ft / 0 m -23.62669˚ -46.65538˚ 19 nm 90 nm 316° / 317° Sao Paulo Congonhas

Altitude Profile

Advertisement - Login to hide

SBSJ

Details ICAO SBSJ (SJK)
Name Sao Jose Dos Campos
Region Brazil
Timezone America/Sao_Paulo (UTC-2.0)
Stats Elevation 2,120 ft / 646 m (AMSL)
Location -23.228171° -45.862738°
Runways 1
Magnetic Variation 21.710° W

METAR

SBSJ 160700Z 00000KT CAVOK 18/16 Q1015

Decode

TAF

Not found

Departure Runways

ID Width Length Bearing (true) Bearing (mag) Surface Threshold Offset Overrun Length
15 148 ft / 45 m 8,741 ft / 2,664 m 135.13° 156.84° Asphalt 0 ft / 0 m 0 ft / 0 m
33 148 ft / 45 m 8,741 ft / 2,664 m 315.12° 336.83° Asphalt 0 ft / 0 m 0 ft / 0 m

SBSP

Details ICAO SBSP (CGH)
Name Sao Paulo Congonhas
Region Brazil
Timezone America/Sao_Paulo (UTC-2.0)
Stats Elevation 2,631 ft / 802 m (AMSL)
Location -23.626693° -46.655377°
Runways 2
Magnetic Variation 21.295° W

METAR

SBSP 160700Z AUTO 05002KT CAVOK 20/15 Q1015

Decode

TAF

Not found

Destination Runways

ID Width Length Bearing (true) Bearing (mag) Surface Threshold Offset Overrun Length
17L 147 ft / 45 m 4,726 ft / 1,441 m 147.28° 168.58° Asphalt 0 ft / 0 m 220 ft / 67 m
17R 147 ft / 45 m 6,406 ft / 1,953 m 147.39° 168.69° Asphalt 413 ft / 126 m 0 ft / 0 m
35L 147 ft / 45 m 6,406 ft / 1,953 m 327.38° 348.68° Asphalt 200 ft / 61 m 0 ft / 0 m
35R 147 ft / 45 m 4,726 ft / 1,441 m 327.28° 348.58° Asphalt 0 ft / 0 m 0 ft / 0 m

Approach Navaids

Runway Type Ident Frequency Range Bearing (true) Bearing (mag) Slope Elevation
17R Localiser ISP 109.30 MHz 18 nm / 33 km 147.03° 168.32° - 2,631 ft / 802 m (AMSL)
17R Glidescope ISP 109.30 MHz 10 nm / 19 km 147.38° 168.68° 2.90° 2,631 ft / 802 m (AMSL)
35L Localiser ICO 110.10 MHz 18 nm / 33 km 328.14° 349.44° - 2,631 ft / 802 m (AMSL)

Popular Alternatives